Time;durP1;ratioP1;P1;durP2;ratioP2;P2;SDS_P1;SDS_P2;PMS_P1;PMS_P2;Temp;Humidity;BMP_temperature;BMP_pressure;BME280_temperature;BME280_humidity;BME280_pressure;Samples;Min_cycle;Max_cycle;Signal;HPM_P1;HPM_P2
2021/12/14 00:01:56;;;;;;;15.02;13.43;;;11.60;99.90;;;;;;5026680;28;20248;-63
2021/12/14 00:04:30;;;;;;;18.40;14.35;;;11.60;99.90;;;;;;5020429;28;20711;-63
2021/12/14 00:06:58;;;;;;;18.55;15.65;;;11.60;99.90;;;;;;5025195;28;20217;-63
2021/12/14 00:09:32;;;;;;;18.52;15.50;;;11.60;99.90;;;;;;5027662;28;20311;-63
2021/12/14 00:12:15;;;;;;;16.73;12.75;;;11.60;99.90;;;;;;5028920;28;20312;-63
2021/12/14 00:15:05;;;;;;;15.02;13.27;;;11.60;99.90;;;;;;5028605;28;20817;-64
2021/12/14 00:17:39;;;;;;;15.98;12.82;;;11.60;99.90;;;;;;5025794;28;20835;-64
2021/12/14 00:20:16;;;;;;;13.98;12.07;;;11.60;99.90;;;;;;5029798;28;20685;-64
2021/12/14 00:25:32;;;;;;;13.93;11.88;;;11.60;99.90;;;;;;5028826;28;20228;-64
2021/12/14 00:28:04;;;;;;;15.00;13.30;;;11.60;99.90;;;;;;5026307;28;20602;-64
2021/12/14 00:30:32;;;;;;;15.82;14.10;;;11.60;99.90;;;;;;5023852;28;20229;-63
2021/12/14 00:33:00;;;;;;;14.55;12.10;;;11.60;99.90;;;;;;5030797;28;20244;-64
2021/12/14 00:35:27;;;;;;;16.58;14.00;;;11.60;99.90;;;;;;5025962;28;20228;-63
2021/12/14 00:37:55;;;;;;;15.10;13.30;;;11.60;99.90;;;;;;5018248;28;20226;-63
2021/12/14 00:40:26;;;;;;;16.92;12.65;;;11.60;99.90;;;;;;5026496;28;20575;-65
2021/12/14 00:42:55;;;;;;;13.98;12.55;;;11.50;99.90;;;;;;5030837;28;20643;-63
2021/12/14 00:45:23;;;;;;;14.07;11.95;;;11.50;99.90;;;;;;5031532;28;20231;-63
2021/12/14 00:47:51;;;;;;;16.20;14.55;;;11.50;99.90;;;;;;5030991;28;20424;-63
2021/12/14 00:50:19;;;;;;;14.80;12.30;;;11.50;99.90;;;;;;5030578;28;20717;-63
2021/12/14 00:52:47;;;;;;;13.43;11.73;;;11.50;99.90;;;;;;5021569;28;20363;-63
2021/12/14 00:55:16;;;;;;;18.60;15.55;;;11.50;99.90;;;;;;5031213;28;20610;-63
2021/12/14 00:57:43;;;;;;;15.75;13.82;;;11.50;99.90;;;;;;5004880;28;20229;-64
2021/12/14 01:00:16;;;;;;;13.18;11.77;;;11.50;99.90;;;;;;5028168;28;20697;-63
2021/12/14 01:02:43;;;;;;;15.02;12.50;;;11.50;99.90;;;;;;5018375;28;20264;-63
2021/12/14 01:05:14;;;;;;;14.85;13.30;;;11.50;99.90;;;;;;5028943;28;20221;-64
2021/12/14 01:07:41;;;;;;;16.20;13.93;;;11.50;99.90;;;;;;5009678;28;20218;-63
2021/12/14 01:10:13;;;;;;;15.20;13.60;;;11.50;99.90;;;;;;5016212;28;20240;-64
2021/12/14 01:12:46;;;;;;;14.32;12.15;;;11.60;99.90;;;;;;5029512;28;20220;-63
2021/12/14 01:15:28;;;;;;;15.40;13.40;;;11.60;99.90;;;;;;5031518;28;20226;-64
2021/12/14 01:18:14;;;;;;;16.85;14.18;;;11.50;99.90;;;;;;5005915;28;20217;-63
2021/12/14 01:20:45;;;;;;;16.25;14.57;;;11.50;99.90;;;;;;5027554;28;20222;-64
2021/12/14 01:23:21;;;;;;;16.20;14.23;;;11.50;99.90;;;;;;5019513;28;20276;-63
2021/12/14 01:25:52;;;;;;;15.07;12.52;;;11.50;99.90;;;;;;5010775;28;20241;-63
2021/12/14 01:28:22;;;;;;;15.85;12.98;;;11.50;99.90;;;;;;5026880;28;20308;-64
2021/12/14 01:31:01;;;;;;;15.60;13.98;;;11.60;99.90;;;;;;5024919;28;20234;-63
2021/12/14 01:33:28;;;;;;;17.55;14.00;;;11.50;99.90;;;;;;5029257;28;20283;-64
2021/12/14 01:35:57;;;;;;;13.63;12.30;;;11.50;99.90;;;;;;5029463;28;20228;-63
2021/12/14 01:38:35;;;;;;;14.73;13.05;;;11.50;99.90;;;;;;5019298;28;20225;-63
2021/12/14 01:41:07;;;;;;;14.65;11.93;;;11.50;99.90;;;;;;5028619;28;21007;-64
2021/12/14 01:43:41;;;;;;;13.50;12.10;;;11.50;99.90;;;;;;5030036;28;20217;-63
2021/12/14 01:46:15;;;;;;;13.73;11.70;;;11.50;99.90;;;;;;5031644;28;20232;-64
2021/12/14 01:48:42;;;;;;;12.70;11.40;;;11.50;99.90;;;;;;5034532;28;20247;-64
2021/12/14 01:51:10;;;;;;;13.88;12.55;;;11.50;99.90;;;;;;5027581;28;21810;-63
2021/12/14 01:53:40;;;;;;;12.80;11.50;;;11.50;99.90;;;;;;5021296;28;20228;-64
2021/12/14 01:56:11;;;;;;;13.85;11.90;;;11.50;99.90;;;;;;5030294;28;20225;-64
2021/12/14 01:58:41;;;;;;;13.25;11.60;;;11.50;99.90;;;;;;5030561;28;20230;-63
2021/12/14 02:01:14;;;;;;;12.52;10.90;;;11.50;99.90;;;;;;5032196;28;20235;-63
2021/12/14 02:03:46;;;;;;;13.05;11.75;;;11.50;99.90;;;;;;5023863;28;20222;-64
2021/12/14 02:06:16;;;;;;;11.63;10.40;;;11.50;99.90;;;;;;5035191;28;20217;-64
2021/12/14 02:08:43;;;;;;;15.48;12.63;;;11.50;99.90;;;;;;5022065;28;20230;-63
2021/12/14 02:11:11;;;;;;;14.48;12.95;;;11.50;99.90;;;;;;5034841;28;20342;-64
2021/12/14 02:13:41;;;;;;;11.35;10.15;;;11.50;99.90;;;;;;5035387;28;20227;-64
2021/12/14 02:16:11;;;;;;;12.85;11.45;;;11.50;99.90;;;;;;5035266;28;20222;-64
2021/12/14 02:18:43;;;;;;;12.00;10.85;;;11.50;99.90;;;;;;5034546;28;20233;-63
2021/12/14 02:21:13;;;;;;;10.57;9.48;;;11.60;99.90;;;;;;5034849;28;20239;-63
2021/12/14 02:23:45;;;;;;;10.27;9.23;;;11.60;99.90;;;;;;5034924;28;20247;-64
2021/12/14 02:26:15;;;;;;;11.73;10.48;;;11.60;99.90;;;;;;5034771;28;20586;-63
2021/12/14 02:28:43;;;;;;;11.57;10.23;;;11.60;99.90;;;;;;5035131;28;20221;-64
2021/12/14 02:31:12;;;;;;;11.50;10.30;;;11.60;99.90;;;;;;5034690;28;20236;-64
2021/12/14 02:33:43;;;;;;;9.65;8.32;;;11.60;99.90;;;;;;5027945;28;20221;-64
2021/12/14 02:36:12;;;;;;;20.58;14.98;;;11.60;99.90;;;;;;5034474;28;20230;-63
2021/12/14 02:38:41;;;;;;;10.50;9.38;;;11.60;99.90;;;;;;5034845;28;20240;-64
2021/12/14 02:41:09;;;;;;;11.77;10.18;;;11.60;99.90;;;;;;5034095;28;20240;-64
2021/12/14 02:43:39;;;;;;;13.38;11.55;;;11.70;99.90;;;;;;5035095;28;20236;-65
2021/12/14 02:46:15;;;;;;;9.85;8.85;;;11.70;99.90;;;;;;5033885;28;20225;-64
2021/12/14 02:48:44;;;;;;;11.13;9.50;;;11.70;99.90;;;;;;5021882;28;20220;-64
2021/12/14 02:51:17;;;;;;;10.73;9.50;;;11.70;99.90;;;;;;5033864;28;20233;-63
2021/12/14 02:53:45;;;;;;;10.50;9.50;;;11.70;99.90;;;;;;5034638;28;20221;-64
2021/12/14 02:56:16;;;;;;;9.35;8.35;;;11.70;99.90;;;;;;5033461;28;20233;-63
2021/12/14 02:58:44;;;;;;;9.38;8.48;;;11.70;99.90;;;;;;5034473;28;20225;-64
2021/12/14 03:01:13;;;;;;;9.55;8.65;;;11.70;99.90;;;;;;5034085;28;20247;-63
2021/12/14 03:03:40;;;;;;;7.90;7.20;;;11.70;99.90;;;;;;5033766;28;20231;-64
2021/12/14 03:06:10;;;;;;;8.25;7.35;;;11.70;99.90;;;;;;5034027;28;20561;-64
2021/12/14 03:08:45;;;;;;;9.27;8.32;;;11.70;99.90;;;;;;5034566;28;20631;-64
2021/12/14 03:11:13;;;;;;;9.98;8.45;;;11.70;99.90;;;;;;5033791;28;20229;-64
2021/12/14 03:13:43;;;;;;;12.40;10.70;;;11.70;99.90;;;;;;5033852;28;20323;-63
2021/12/14 03:16:16;;;;;;;13.77;11.00;;;11.70;99.90;;;;;;5033653;28;20236;-64
2021/12/14 03:18:47;;;;;;;10.02;9.02;;;11.70;99.90;;;;;;5034271;28;20240;-63
2021/12/14 03:21:17;;;;;;;10.13;9.13;;;11.70;99.90;;;;;;5020704;28;20312;-64
2021/12/14 03:23:48;;;;;;;9.43;8.52;;;11.70;99.90;;;;;;5034133;28;20232;-63
2021/12/14 03:26:17;;;;;;;9.77;8.75;;;11.70;99.90;;;;;;5033837;28;20221;-64
2021/12/14 03:28:50;;;;;;;11.52;9.32;;;11.70;99.90;;;;;;5034149;28;20225;-64
2021/12/14 03:31:26;;;;;;;10.25;9.35;;;11.60;99.90;;;;;;5033253;28;20233;-64
2021/12/14 03:33:56;;;;;;;9.50;8.40;;;11.60;99.90;;;;;;5033123;28;20683;-63
2021/12/14 03:36:26;;;;;;;14.18;11.70;;;11.60;99.90;;;;;;5033692;28;21254;-64
2021/12/14 03:38:57;;;;;;;14.52;10.98;;;11.60;99.90;;;;;;5033702;28;20568;-64
2021/12/14 03:41:28;;;;;;;12.82;10.20;;;11.60;99.90;;;;;;5033322;28;20231;-63
2021/12/14 03:43:59;;;;;;;12.43;9.85;;;11.60;99.90;;;;;;5033487;28;20660;-64
2021/12/14 03:46:27;;;;;;;13.05;11.35;;;11.60;99.90;;;;;;5033304;28;20668;-64
2021/12/14 03:48:55;;;;;;;11.70;10.23;;;11.50;99.90;;;;;;5033257;28;20251;-64
2021/12/14 03:51:23;;;;;;;10.40;8.13;;;11.50;99.90;;;;;;5033052;28;20237;-64
2021/12/14 03:53:51;;;;;;;11.55;10.45;;;11.50;99.90;;;;;;5033708;28;20576;-63
2021/12/14 03:56:19;;;;;;;9.98;8.98;;;11.50;99.90;;;;;;5033050;28;20218;-64
2021/12/14 03:58:48;;;;;;;10.05;8.27;;;11.50;99.90;;;;;;5033691;28;20240;-64
2021/12/14 04:01:23;;;;;;;11.45;8.65;;;11.50;99.90;;;;;;5032839;28;20229;-64
2021/12/14 04:03:55;;;;;;;12.55;9.40;;;11.50;99.90;;;;;;5033610;28;20239;-64
2021/12/14 04:06:22;;;;;;;13.55;11.38;;;11.50;99.90;;;;;;5032365;28;20308;-64
2021/12/14 04:08:51;;;;;;;11.43;9.60;;;11.50;99.90;;;;;;5032571;28;20239;-64
2021/12/14 04:11:19;;;;;;;11.48;9.77;;;11.50;99.90;;;;;;5032256;28;20858;-64
2021/12/14 04:13:48;;;;;;;12.15;9.75;;;11.40;99.90;;;;;;5033257;28;20235;-64
2021/12/14 04:16:24;;;;;;;9.52;8.57;;;11.40;99.90;;;;;;5032761;28;20698;-63
2021/12/14 04:18:51;;;;;;;11.88;9.40;;;11.40;99.90;;;;;;5032628;28;20237;-64
2021/12/14 04:21:19;;;;;;;12.82;9.32;;;11.40;99.90;;;;;;5032495;28;20744;-64
2021/12/14 04:23:51;;;;;;;13.45;9.90;;;11.40;99.90;;;;;;5032906;28;20221;-63
2021/12/14 04:26:19;;;;;;;13.18;9.63;;;11.30;99.90;;;;;;5032656;28;20232;-64
2021/12/14 04:28:49;;;;;;;11.18;9.60;;;11.30;99.90;;;;;;5032980;28;20560;-64
2021/12/14 04:31:16;;;;;;;10.75;9.25;;;11.30;99.90;;;;;;5032132;28;20229;-64
2021/12/14 04:33:46;;;;;;;9.85;8.85;;;11.30;99.90;;;;;;5032908;28;20231;-64
2021/12/14 04:36:16;;;;;;;9.30;8.25;;;11.30;99.90;;;;;;5032017;28;20256;-64
2021/12/14 04:38:50;;;;;;;11.18;9.30;;;11.30;99.90;;;;;;5032917;28;20237;-64
2021/12/14 04:52:22;;;;;;;11.02;8.70;;;11.30;99.90;;;;;;5032505;28;20224;-63
2021/12/14 04:54:52;;;;;;;9.95;8.95;;;11.30;99.90;;;;;;5032136;28;20228;-63
2021/12/14 04:57:25;;;;;;;13.48;10.20;;;11.30;99.90;;;;;;5031879;28;21012;-63
2021/12/14 04:59:54;;;;;;;13.05;10.00;;;11.30;99.90;;;;;;5032419;28;20230;-63
2021/12/14 05:02:24;;;;;;;11.88;9.40;;;11.30;99.90;;;;;;5031920;28;20223;-63
2021/12/14 05:04:53;;;;;;;10.93;9.38;;;11.30;99.90;;;;;;5032336;28;20241;-63
2021/12/14 05:07:44;;;;;;;9.05;8.10;;;11.30;99.90;;;;;;5028334;28;20233;-63
2021/12/14 05:10:16;;;;;;;12.63;9.32;;;11.30;99.90;;;;;;5022284;28;20321;-63
2021/12/14 05:12:45;;;;;;;12.00;9.30;;;11.30;99.90;;;;;;5032283;28;20292;-63
2021/12/14 05:15:15;;;;;;;9.75;8.30;;;11.30;99.90;;;;;;5032033;28;20267;-63
2021/12/14 05:17:44;;;;;;;10.48;8.15;;;11.30;99.90;;;;;;5032330;28;20225;-63
2021/12/14 05:20:15;;;;;;;12.60;11.30;;;11.30;99.90;;;;;;5032996;28;20233;-63
2021/12/14 05:22:44;;;;;;;11.07;9.55;;;11.40;99.90;;;;;;5036502;28;20308;-63
2021/12/14 05:25:15;;;;;;;14.32;11.15;;;11.30;99.90;;;;;;5036016;28;20239;-63
2021/12/14 05:27:46;;;;;;;12.30;10.00;;;11.30;99.90;;;;;;5023992;28;20228;-63
2021/12/14 05:30:18;;;;;;;10.73;8.90;;;11.30;99.90;;;;;;5035719;28;20225;-63
2021/12/14 05:32:46;;;;;;;12.00;9.57;;;11.30;99.90;;;;;;5036327;28;20229;-63
2021/12/14 05:35:16;;;;;;;12.00;9.93;;;11.30;99.90;;;;;;5035602;28;20687;-63
2021/12/14 05:37:48;;;;;;;11.20;9.13;;;11.30;99.90;;;;;;5036166;28;20225;-63
2021/12/14 05:40:26;;;;;;;10.63;8.40;;;11.30;99.90;;;;;;5035571;28;20584;-63
2021/12/14 05:43:06;;;;;;;9.82;8.82;;;11.30;99.90;;;;;;5035769;28;20232;-63
2021/12/14 05:45:36;;;;;;;9.45;8.32;;;11.30;99.90;;;;;;5035773;28;21570;-63
2021/12/14 05:48:04;;;;;;;12.90;10.60;;;11.30;99.90;;;;;;5035808;28;20225;-63
2021/12/14 05:50:33;;;;;;;11.85;8.52;;;11.30;99.90;;;;;;5035075;28;20225;-63
2021/12/14 05:53:01;;;;;;;10.75;9.38;;;11.30;99.90;;;;;;5035986;28;20235;-63
2021/12/14 05:55:31;;;;;;;12.35;8.77;;;11.30;99.90;;;;;;5035320;28;20236;-63
2021/12/14 05:58:00;;;;;;;10.95;9.60;;;11.30;99.90;;;;;;5035656;28;20702;-63
2021/12/14 06:00:29;;;;;;;11.63;8.85;;;11.30;99.90;;;;;;5034942;28;20225;-64
2021/12/14 06:02:56;;;;;;;12.30;10.50;;;11.30;99.90;;;;;;5036022;28;20697;-64
2021/12/14 06:05:28;;;;;;;12.43;9.95;;;11.30;99.90;;;;;;5035072;28;20574;-63
2021/12/14 06:07:55;;;;;;;16.13;12.32;;;11.30;99.90;;;;;;5035557;28;20695;-64
2021/12/14 06:10:23;;;;;;;13.77;10.10;;;11.30;99.90;;;;;;5035240;28;20239;-64
2021/12/14 06:12:50;;;;;;;13.43;9.65;;;11.30;99.90;;;;;;5035276;28;20232;-63
2021/12/14 06:15:26;;;;;;;10.65;8.60;;;11.30;99.90;;;;;;5034737;28;20218;-63
2021/12/14 06:17:53;;;;;;;10.48;8.65;;;11.20;99.90;;;;;;5035363;28;20312;-63
2021/12/14 06:20:23;;;;;;;15.82;12.02;;;11.30;99.90;;;;;;5034789;28;20236;-63
2021/12/14 06:22:52;;;;;;;10.57;8.48;;;11.30;99.90;;;;;;5035324;28;20225;-64
2021/12/14 06:25:22;;;;;;;11.55;9.85;;;11.20;99.90;;;;;;5021874;28;20248;-63
2021/12/14 06:27:50;;;;;;;10.10;8.35;;;11.20;99.90;;;;;;5035298;28;20225;-63
2021/12/14 06:30:21;;;;;;;11.57;9.77;;;11.20;99.90;;;;;;5034780;28;20233;-63
2021/12/14 06:32:51;;;;;;;11.75;8.32;;;11.20;99.90;;;;;;5034205;28;20615;-63
2021/12/14 06:35:21;;;;;;;11.38;9.77;;;11.20;99.90;;;;;;5034766;28;20600;-63
2021/12/14 06:38:22;;;;;;;12.30;10.80;;;11.20;99.90;;;;;;5035118;28;20226;-64
2021/12/14 06:41:04;;;;;;;12.23;10.35;;;11.20;99.90;;;;;;5035119;28;20236;-64
2021/12/14 06:43:34;;;;;;;12.90;10.48;;;11.20;99.90;;;;;;5035494;28;20227;-64
2021/12/14 06:46:06;;;;;;;11.27;9.98;;;11.20;99.90;;;;;;5034320;28;21284;-63
2021/12/14 06:48:39;;;;;;;10.45;9.18;;;11.20;99.90;;;;;;5034886;28;20225;-63
2021/12/14 06:51:09;;;;;;;11.90;10.50;;;11.20;99.90;;;;;;5013308;28;20225;-63
2021/12/14 06:53:37;;;;;;;11.18;8.60;;;11.20;99.90;;;;;;5034132;28;20232;-64
2021/12/14 06:56:07;;;;;;;11.23;8.77;;;11.20;99.90;;;;;;5025972;28;20564;-64
2021/12/14 06:58:38;;;;;;;12.00;9.15;;;11.20;99.90;;;;;;5034593;28;20213;-64
2021/12/14 07:01:11;;;;;;;11.32;9.05;;;11.20;99.90;;;;;;5034229;28;20240;-64
2021/12/14 07:03:40;;;;;;;9.80;8.05;;;11.20;99.90;;;;;;5034590;28;20304;-63
2021/12/14 07:06:08;;;;;;;12.65;9.88;;;11.20;99.90;;;;;;5017708;28;21038;-64
2021/12/14 07:08:35;;;;;;;11.18;10.07;;;11.20;99.90;;;;;;5017987;28;20233;-64
2021/12/14 07:11:02;;;;;;;15.52;12.68;;;11.20;99.90;;;;;;5033199;28;20582;-63
2021/12/14 07:13:36;;;;;;;17.33;13.98;;;11.20;99.90;;;;;;5034344;28;20236;-63
2021/12/14 07:16:20;;;;;;;15.82;13.00;;;11.20;99.90;;;;;;5033985;28;20253;-63
2021/12/14 07:18:50;;;;;;;20.70;16.10;;;11.20;99.90;;;;;;5021044;28;20232;-63
2021/12/14 07:21:38;;;;;;;18.90;14.63;;;11.20;99.90;;;;;;5033935;28;20236;-64
2021/12/14 07:24:37;;;;;;;25.75;19.08;;;11.20;99.90;;;;;;5033764;28;20226;-64
2021/12/14 07:27:18;;;;;;;11.82;9.40;;;11.20;99.90;;;;;;5022438;28;20243;-64
2021/12/14 07:29:46;;;;;;;16.55;12.48;;;11.20;99.90;;;;;;5033638;28;20328;-64
2021/12/14 07:32:15;;;;;;;16.20;12.05;;;11.20;99.90;;;;;;5034067;28;20225;-64
2021/12/14 07:34:42;;;;;;;13.88;11.40;;;11.20;99.90;;;;;;5033880;28;20217;-64
2021/12/14 07:37:09;;;;;;;10.55;8.88;;;11.20;99.90;;;;;;5033630;28;20231;-63
2021/12/14 07:39:36;;;;;;;11.98;10.60;;;11.20;99.90;;;;;;5033587;28;20239;-64
2021/12/14 07:42:03;;;;;;;9.40;7.60;;;11.20;99.90;;;;;;5033514;28;20233;-63
2021/12/14 07:44:35;;;;;;;9.65;7.78;;;11.20;99.90;;;;;;5033866;28;20282;-63
2021/12/14 07:47:05;;;;;;;14.75;11.43;;;11.20;99.90;;;;;;5033394;28;20237;-63
2021/12/14 07:49:36;;;;;;;17.60;13.80;;;11.20;99.90;;;;;;5020793;28;20221;-63
2021/12/14 07:52:06;;;;;;;16.30;12.85;;;11.20;99.90;;;;;;5033336;28;20239;-64
2021/12/14 07:54:37;;;;;;;12.18;10.90;;;11.20;99.90;;;;;;5033433;28;20217;-64
2021/12/14 07:57:08;;;;;;;11.52;10.05;;;11.20;99.90;;;;;;5033090;28;20241;-63
2021/12/14 07:59:38;;;;;;;13.60;11.00;;;11.20;99.90;;;;;;5033410;28;20225;-64
2021/12/14 08:02:13;;;;;;;10.15;9.13;;;11.20;99.90;;;;;;5033011;28;20229;-64
2021/12/14 08:04:45;;;;;;;12.75;9.95;;;11.20;99.90;;;;;;5033348;28;20225;-64
2021/12/14 08:07:23;;;;;;;9.73;8.73;;;11.20;99.90;;;;;;5010504;28;20257;-64
2021/12/14 08:09:51;;;;;;;9.40;8.40;;;11.30;99.90;;;;;;5006628;28;20226;-63
2021/12/14 08:12:31;;;;;;;12.07;10.05;;;11.20;99.90;;;;;;5018963;28;20313;-63
2021/12/14 08:15:06;;;;;;;12.13;10.60;;;11.20;99.90;;;;;;5030855;28;20220;-63
2021/12/14 08:17:33;;;;;;;12.10;9.90;;;11.20;99.90;;;;;;5033066;28;20230;-64
2021/12/14 08:20:01;;;;;;;10.65;9.25;;;11.20;99.90;;;;;;5032242;28;20228;-63
2021/12/14 08:22:31;;;;;;;11.70;10.50;;;11.30;99.90;;;;;;5033251;28;20225;-64
2021/12/14 08:24:59;;;;;;;11.77;9.30;;;11.30;99.90;;;;;;5014891;28;20252;-63
2021/12/14 08:27:28;;;;;;;14.82;11.10;;;11.30;99.90;;;;;;5026576;28;20694;-64
2021/12/14 08:29:59;;;;;;;12.88;9.95;;;11.30;99.90;;;;;;5032467;28;20698;-63
2021/12/14 08:32:30;;;;;;;12.98;10.85;;;11.30;99.90;;;;;;5033117;28;20235;-63
2021/12/14 08:34:57;;;;;;;13.73;11.40;;;11.30;99.90;;;;;;5032246;28;20225;-64
2021/12/14 08:37:29;;;;;;;11.43;10.05;;;11.30;99.90;;;;;;5033064;28;20231;-62
2021/12/14 08:40:02;;;;;;;13.57;10.93;;;11.20;99.90;;;;;;5035993;28;20225;-62
2021/12/14 08:42:38;;;;;;;13.60;11.68;;;11.20;99.90;;;;;;5041038;28;20735;-63
2021/12/14 08:45:24;;;;;;;17.10;10.75;;;11.20;99.90;;;;;;5032341;28;20228;-63
2021/12/14 08:47:54;;;;;;;13.20;9.85;;;11.20;99.90;;;;;;5032123;28;20232;-63
2021/12/14 08:50:21;;;;;;;12.85;10.13;;;11.20;99.90;;;;;;5032802;28;20233;-62
2021/12/14 08:52:51;;;;;;;15.43;11.55;;;11.20;99.90;;;;;;5032632;28;20229;-62
2021/12/14 08:55:19;;;;;;;12.02;10.52;;;11.20;99.90;;;;;;5031466;28;20218;-62
2021/12/14 08:57:46;;;;;;;12.40;11.10;;;11.10;99.90;;;;;;5032645;28;20225;-63
2021/12/14 09:00:18;;;;;;;12.38;9.98;;;11.10;99.90;;;;;;5031944;28;20263;-63
2021/12/14 09:02:48;;;;;;;14.23;11.43;;;11.10;99.90;;;;;;5032584;28;20240;-63
2021/12/14 09:05:18;;;;;;;12.25;10.95;;;11.20;99.90;;;;;;5032497;28;20232;-63
2021/12/14 09:07:45;;;;;;;12.68;11.27;;;11.20;99.90;;;;;;5031992;28;20244;-63
2021/12/14 09:10:22;;;;;;;13.15;10.95;;;11.20;99.90;;;;;;5032528;28;20228;-63
2021/12/14 09:12:55;;;;;;;13.93;11.85;;;11.10;99.90;;;;;;5019487;28;20221;-63
2021/12/14 09:15:25;;;;;;;13.93;11.10;;;11.20;99.90;;;;;;5032494;28;20226;-63
2021/12/14 09:17:54;;;;;;;14.35;12.68;;;11.10;99.90;;;;;;5032070;28;20217;-63
2021/12/14 09:20:25;;;;;;;12.35;10.60;;;11.10;99.90;;;;;;5032080;28;20217;-64
2021/12/14 09:22:55;;;;;;;11.57;10.23;;;11.10;99.90;;;;;;5032144;28;20225;-63
2021/12/14 09:25:29;;;;;;;10.35;9.35;;;11.10;99.90;;;;;;5032325;28;20222;-63
2021/12/14 09:27:59;;;;;;;16.00;12.00;;;11.20;99.90;;;;;;5032131;28;20296;-63
2021/12/14 09:30:30;;;;;;;15.38;12.25;;;11.20;99.90;;;;;;5032170;28;20221;-63
2021/12/14 09:32:57;;;;;;;18.85;12.57;;;11.20;99.90;;;;;;5031677;28;20213;-63
2021/12/14 09:35:27;;;;;;;15.10;11.38;;;11.30;99.90;;;;;;5032214;28;20239;-63
2021/12/14 09:37:57;;;;;;;11.68;10.45;;;11.30;99.90;;;;;;5031519;28;20548;-63
2021/12/14 09:40:29;;;;;;;15.02;12.38;;;11.30;99.90;;;;;;5031066;28;20236;-63
2021/12/14 09:42:57;;;;;;;13.63;12.05;;;11.40;99.90;;;;;;5031532;28;20221;-63
2021/12/14 09:45:27;;;;;;;18.48;12.88;;;11.40;99.90;;;;;;5032129;28;20236;-63
2021/12/14 09:47:54;;;;;;;13.45;12.05;;;11.40;99.90;;;;;;5031829;28;20233;-63
2021/12/14 09:50:26;;;;;;;14.77;11.50;;;11.50;99.90;;;;;;5032088;28;20221;-64
2021/12/14 09:52:54;;;;;;;16.15;13.68;;;11.40;99.90;;;;;;5031823;28;20316;-63
2021/12/14 09:55:26;;;;;;;16.75;12.80;;;11.50;99.90;;;;;;5032251;28;20235;-64
2021/12/14 09:57:56;;;;;;;12.32;11.02;;;11.40;99.90;;;;;;5032088;28;20225;-64
2021/12/14 10:00:28;;;;;;;15.63;11.70;;;11.40;99.90;;;;;;5032025;28;20217;-63
2021/12/14 10:02:57;;;;;;;17.35;11.88;;;11.40;99.90;;;;;;5027695;28;20311;-64
2021/12/14 10:05:27;;;;;;;15.32;11.40;;;11.40;99.90;;;;;;5028733;28;20232;-63
2021/12/14 10:07:55;;;;;;;13.73;11.43;;;11.40;99.90;;;;;;5032786;28;20571;-63
2021/12/14 10:10:23;;;;;;;11.48;10.27;;;11.40;99.90;;;;;;5035155;28;20232;-63
2021/12/14 10:12:55;;;;;;;13.32;12.00;;;11.40;99.90;;;;;;5035313;28;20221;-63
2021/12/14 10:15:32;;;;;;;14.15;10.82;;;11.40;99.90;;;;;;5035364;28;20225;-63
2021/12/14 10:18:03;;;;;;;18.92;11.57;;;11.40;99.90;;;;;;5037362;28;20707;-63
2021/12/14 10:20:36;;;;;;;14.52;10.73;;;11.40;99.90;;;;;;5035103;28;20582;-63
2021/12/14 10:23:04;;;;;;;14.00;11.45;;;11.30;99.90;;;;;;5034997;28;20217;-63
2021/12/14 10:25:32;;;;;;;14.68;11.10;;;11.40;99.90;;;;;;5034950;28;20225;-64
2021/12/14 10:28:00;;;;;;;14.27;12.00;;;11.40;99.90;;;;;;5034695;28;20651;-64
2021/12/14 10:30:31;;;;;;;11.93;10.73;;;11.30;99.90;;;;;;5035238;28;20566;-64
2021/12/14 10:33:00;;;;;;;14.02;10.85;;;11.40;99.90;;;;;;5034770;28;20239;-63
2021/12/14 10:35:34;;;;;;;13.48;10.95;;;11.40;99.90;;;;;;5035067;28;20217;-64
2021/12/14 10:38:14;;;;;;;11.20;10.05;;;11.30;99.90;;;;;;5034455;28;20216;-63
2021/12/14 10:43:32;;;;;;;13.45;11.68;;;11.40;99.90;;;;;;5024950;28;20708;-63
2021/12/14 10:46:02;;;;;;;14.10;11.93;;;11.40;99.90;;;;;;5034345;28;20240;-63
2021/12/14 10:48:33;;;;;;;13.82;11.40;;;11.50;99.90;;;;;;5034963;28;20308;-63
2021/12/14 10:51:06;;;;;;;12.95;11.40;;;11.50;99.90;;;;;;5034207;28;20243;-63
2021/12/14 10:53:33;;;;;;;14.82;12.43;;;11.50;99.90;;;;;;5034942;28;20221;-63
2021/12/14 10:56:04;;;;;;;13.85;11.80;;;11.60;99.90;;;;;;5034039;28;20789;-64
2021/12/14 10:58:33;;;;;;;13.00;11.60;;;11.60;99.90;;;;;;5028146;28;20590;-64
2021/12/14 11:01:04;;;;;;;16.48;13.48;;;11.60;99.90;;;;;;5034244;28;20603;-63
2021/12/14 11:03:35;;;;;;;16.45;12.60;;;11.70;99.90;;;;;;5034260;28;20745;-65
2021/12/14 11:06:06;;;;;;;16.30;13.60;;;11.70;99.90;;;;;;5034138;28;20529;-64
2021/12/14 11:08:45;;;;;;;18.42;14.65;;;11.70;99.90;;;;;;5034226;28;20221;-64
2021/12/14 11:11:15;;;;;;;14.25;12.00;;;11.80;99.90;;;;;;5034136;28;20283;-63
2021/12/14 11:13:47;;;;;;;15.75;13.10;;;11.80;99.90;;;;;;5034367;28;20228;-63
2021/12/14 11:16:32;;;;;;;13.15;11.68;;;11.80;99.90;;;;;;5033861;28;20248;-63
2021/12/14 11:19:02;;;;;;;14.07;11.65;;;11.80;99.90;;;;;;5027169;28;20249;-63
2021/12/14 11:21:29;;;;;;;13.45;12.05;;;11.80;99.90;;;;;;5033908;28;20560;-63
2021/12/14 11:23:56;;;;;;;12.30;10.45;;;11.80;99.90;;;;;;5033807;28;20225;-63
2021/12/14 11:26:27;;;;;;;18.40;12.27;;;11.80;99.90;;;;;;5033996;28;20226;-63
2021/12/14 11:29:00;;;;;;;13.82;12.23;;;11.70;99.90;;;;;;5033654;28;20234;-63
2021/12/14 11:31:34;;;;;;;15.32;12.32;;;11.70;99.90;;;;;;5033962;28;20230;-63
2021/12/14 11:34:04;;;;;;;18.30;12.95;;;11.80;99.90;;;;;;5033639;28;20312;-63
2021/12/14 11:36:33;;;;;;;15.15;11.90;;;11.80;99.90;;;;;;5033554;28;20217;-63
2021/12/14 11:39:07;;;;;;;15.57;12.48;;;11.70;99.90;;;;;;5033501;28;20225;-64
2021/12/14 11:41:42;;;;;;;12.88;11.20;;;11.80;99.90;;;;;;5028690;28;20229;-63
2021/12/14 11:44:16;;;;;;;17.80;11.48;;;11.70;99.90;;;;;;5033354;28;20228;-64
2021/12/14 11:46:58;;;;;;;12.73;11.52;;;11.70;99.90;;;;;;5033691;28;20717;-64
2021/12/14 11:49:41;;;;;;;15.00;11.90;;;11.70;99.90;;;;;;5033128;28;21381;-64
2021/12/14 11:52:10;;;;;;;16.00;14.10;;;11.70;99.90;;;;;;5032075;28;20231;-63
2021/12/14 11:54:43;;;;;;;14.57;12.15;;;11.70;99.90;;;;;;5033473;28;20225;-64
2021/12/14 11:57:10;;;;;;;14.00;12.00;;;11.70;99.90;;;;;;5033023;28;20222;-63
2021/12/14 11:59:39;;;;;;;15.35;13.50;;;11.80;99.90;;;;;;5033018;28;20226;-63
2021/12/14 12:02:07;;;;;;;15.13;12.02;;;11.80;99.90;;;;;;5032904;28;20691;-63
2021/12/14 12:04:36;;;;;;;12.48;11.18;;;11.80;99.90;;;;;;5033044;28;20225;-63
2021/12/14 12:09:56;;;;;;;15.65;12.00;;;11.80;99.90;;;;;;5024605;28;20240;-63
2021/12/14 12:12:26;;;;;;;16.85;12.75;;;11.80;99.90;;;;;;5033674;28;20221;-63
2021/12/14 12:14:57;;;;;;;13.20;11.80;;;11.80;99.90;;;;;;5042657;28;20229;-63
2021/12/14 12:17:33;;;;;;;14.57;12.10;;;11.80;99.90;;;;;;5030536;28;20224;-63
2021/12/14 12:20:08;;;;;;;17.67;11.68;;;11.80;99.90;;;;;;5031509;28;20224;-63
2021/12/14 12:22:37;;;;;;;12.90;11.18;;;11.80;99.90;;;;;;5030562;28;20221;-63
2021/12/14 12:25:07;;;;;;;15.38;11.63;;;11.80;99.90;;;;;;5031544;28;20221;-63
2021/12/14 12:27:40;;;;;;;13.75;11.65;;;11.80;99.90;;;;;;5030728;28;20555;-63
2021/12/14 12:30:31;;;;;;;15.07;13.00;;;11.80;99.90;;;;;;5031034;28;20309;-64
2021/12/14 12:33:03;;;;;;;13.07;11.30;;;11.80;99.90;;;;;;5024308;28;20222;-63
2021/12/14 12:35:36;;;;;;;15.15;11.85;;;11.80;99.90;;;;;;5032856;28;20217;-63
2021/12/14 12:38:24;;;;;;;15.23;12.73;;;11.70;99.90;;;;;;5032746;28;20225;-63
2021/12/14 12:40:57;;;;;;;16.55;13.60;;;11.70;99.90;;;;;;5022009;28;20225;-63
2021/12/14 12:43:32;;;;;;;14.93;11.10;;;11.80;99.90;;;;;;5032371;28;20213;-63
2021/12/14 12:46:08;;;;;;;16.17;12.68;;;11.80;99.90;;;;;;5032558;28;20224;-62
2021/12/14 12:48:40;;;;;;;13.98;11.48;;;11.80;99.90;;;;;;5032926;28;20258;-64
2021/12/14 12:51:09;;;;;;;17.40;12.32;;;11.80;99.90;;;;;;5032376;28;20225;-64
2021/12/14 12:53:36;;;;;;;12.02;10.88;;;11.90;99.90;;;;;;5019354;28;20217;-63
2021/12/14 12:56:09;;;;;;;17.30;12.23;;;11.90;99.90;;;;;;5032163;28;20225;-64
2021/12/14 12:58:40;;;;;;;16.42;12.27;;;11.90;99.90;;;;;;5032612;28;20229;-64
2021/12/14 13:01:08;;;;;;;13.80;9.98;;;11.90;99.90;;;;;;5032036;28;20706;-63
2021/12/14 13:03:40;;;;;;;13.38;11.82;;;11.90;99.90;;;;;;5032482;28;20233;-63
2021/12/14 13:06:10;;;;;;;12.85;10.45;;;11.90;99.90;;;;;;5032033;28;20229;-63
2021/12/14 13:08:39;;;;;;;16.25;11.73;;;11.80;99.90;;;;;;5032627;28;20221;-63
2021/12/14 13:11:09;;;;;;;13.57;11.13;;;11.90;99.90;;;;;;5031701;28;20229;-63